Fowlkes, Tennessee
Current Conditions -  °F | °C
As of 8:35 PM on Saturday 25 Oct 2014 (Local Time) from KDYR Reporting Station
Clear Clear  
Wind Chill: 64°   Ceiling: Unl
Heat Index: 64°   Visibility: 10mi
Dew Point: 54°   Wind: 0mph
Humidity: 68%   Direction: NA
Pressure: 30.04"   Gusts: NA
Location:  35.97°N, 89.39°W
Report Text: KDYR 260135Z 00000KT 10SM CLR 18/12 A3004 RMK AO1
Loading
Personal Weather Stations






























Interactive Weather Map
Tropical Storm Tracking
New forecast layout! Learn more

10-Day Weather Forecast

Advertisements
Track Severe Weather on mobile